createdAt,value
2023-09-19T00:00:15.299Z,94977.31
2023-09-19T00:03:18.464Z,94979.72
2023-09-19T00:06:21.530Z,94987.84
2023-09-19T00:09:27.158Z,94992.94
2023-09-19T00:12:31.043Z,94999.97
2023-09-19T00:15:39.863Z,95011.34
2023-09-19T00:18:43.530Z,95012.13
2023-09-19T00:21:46.956Z,95011.00
2023-09-19T00:24:49.500Z,95011.81
2023-09-19T00:27:53.338Z,95009.03
2023-09-19T00:30:56.344Z,95015.66
2023-09-19T00:34:00.879Z,95018.41
2023-09-19T00:37:04.788Z,95012.59
2023-09-19T00:40:12.895Z,95002.81
2023-09-19T00:43:17.704Z,95009.06
2023-09-19T00:46:20.466Z,95004.03
2023-09-19T00:49:23.665Z,95003.22
2023-09-19T00:52:26.971Z,95003.22
2023-09-19T00:55:33.983Z,95009.13
2023-09-19T00:58:39.695Z,95002.09
2023-09-19T01:01:42.339Z,95016.56
2023-09-19T01:04:45.240Z,95006.03
2023-09-19T01:07:49.909Z,95004.53
2023-09-19T01:10:57.422Z,95004.59
2023-09-19T01:14:10.261Z,95021.66
2023-09-19T01:17:23.551Z,95010.41
2023-09-19T01:20:36.226Z,95026.03
2023-09-19T01:23:58.011Z,95024.47
2023-09-19T01:27:09.615Z,95021.38
2023-09-19T01:30:16.794Z,95021.38
2023-09-19T01:33:19.508Z,95016.31
2023-09-19T01:36:24.349Z,95019.44
2023-09-19T01:39:27.008Z,95010.97
2023-09-19T01:42:37.749Z,95014.44
2023-09-19T01:45:49.433Z,95036.28
2023-09-19T01:48:59.998Z,95036.28
2023-09-19T01:52:13.352Z,95035.16
2023-09-19T01:55:18.933Z,95053.16
2023-09-19T01:58:29.535Z,95046.91
2023-09-19T02:01:34.048Z,95035.25
2023-09-19T02:04:37.142Z,95047.28
2023-09-19T02:07:41.436Z,95035.59
2023-09-19T02:10:44.034Z,95038.78
2023-09-19T02:13:46.845Z,95052.41
2023-09-19T02:16:51.741Z,95061.41
2023-09-19T02:19:54.498Z,95068.84
2023-09-19T02:22:57.127Z,95069.25
2023-09-19T02:26:01.490Z,95071.97
2023-09-19T02:29:05.756Z,95069.25
2023-09-19T02:32:10.678Z,95071.19
2023-09-19T02:35:15.729Z,95064.19
2023-09-19T02:38:22.121Z,95068.88
2023-09-19T02:41:24.768Z,95066.16
2023-09-19T02:44:28.333Z,95082.22
2023-09-19T02:47:32.466Z,95078.69
2023-09-19T02:50:35.808Z,95085.72
2023-09-19T02:53:39.358Z,95074.88
2023-09-19T02:56:42.433Z,95089.28
2023-09-19T02:59:45.307Z,95088.88
2023-09-19T03:02:49.408Z,95096.72
2023-09-19T03:05:54.800Z,95102.97
2023-09-19T03:08:58.128Z,95103.75
2023-09-19T03:12:01.307Z,95099.50
2023-09-19T03:15:05.436Z,95108.88
2023-09-19T03:18:09.388Z,95115.50
2023-09-19T03:21:14.193Z,95101.19
2023-09-19T03:24:17.285Z,95104.56
2023-09-19T03:27:19.921Z,95115.50
2023-09-19T03:30:22.767Z,95110.81
2023-09-19T03:33:26.814Z,95115.56
2023-09-19T03:36:30.868Z,95103.88
2023-09-19T03:39:33.532Z,95123.41
2023-09-19T03:42:37.333Z,95117.94
2023-09-19T03:45:39.883Z,95118.69
2023-09-19T03:48:44.676Z,95117.56
2023-09-19T03:51:47.504Z,95117.94
2023-09-19T03:54:50.050Z,95108.19
2023-09-19T03:57:53.834Z,95093.44
2023-09-19T04:00:57.407Z,95115.59
2023-09-19T04:04:09.011Z,95122.28
2023-09-19T04:07:11.662Z,95110.53
2023-09-19T04:10:15.705Z,95108.25
2023-09-19T04:13:18.370Z,95102.75
2023-09-19T04:16:21.008Z,95108.19
2023-09-19T04:19:24.973Z,95119.94
2023-09-19T04:22:27.981Z,95114.88
2023-09-19T04:25:30.753Z,95105.94
2023-09-19T04:28:35.144Z,95114.91
2023-09-19T04:31:44.006Z,95118.41
2023-09-19T04:34:50.970Z,95119.59
2023-09-19T04:37:54.029Z,95130.56
2023-09-19T04:40:59.856Z,95130.56
2023-09-19T04:44:02.541Z,95138.00
2023-09-19T04:47:07.126Z,95142.69
2023-09-19T04:50:14.669Z,95139.97
2023-09-19T04:53:18.782Z,95137.56
2023-09-19T04:56:22.159Z,95142.28
2023-09-19T04:59:24.957Z,95145.00
2023-09-19T05:02:27.706Z,95153.66
2023-09-19T05:05:31.891Z,95156.38
2023-09-19T05:08:34.453Z,95154.03
2023-09-19T05:11:39.152Z,95150.13
2023-09-19T05:14:42.308Z,95150.53
2023-09-19T05:17:50.183Z,95151.72
2023-09-19T05:20:55.803Z,95161.47
2023-09-19T05:23:58.817Z,95172.47
2023-09-19T05:27:02.011Z,95162.38
2023-09-19T05:30:05.773Z,95169.78
2023-09-19T05:33:09.110Z,95172.06
2023-09-19T05:36:13.112Z,95169.38
2023-09-19T05:39:15.711Z,95177.97
2023-09-19T05:42:18.525Z,95169.78
2023-09-19T05:45:23.594Z,95182.25
2023-09-19T05:48:26.437Z,95182.25
2023-09-19T05:51:30.297Z,95180.72
2023-09-19T05:54:34.243Z,95191.25
2023-09-19T05:57:36.844Z,95188.16
2023-09-19T06:00:40.427Z,95199.88
2023-09-19T06:03:43.867Z,95196.75
2023-09-19T06:06:49.856Z,95188.94
2023-09-19T06:09:52.372Z,95201.84
2023-09-19T06:12:56.133Z,95196.78
2023-09-19T06:15:59.647Z,95193.72
2023-09-19T06:19:02.215Z,95201.47
2023-09-19T06:22:06.286Z,95192.16
2023-09-19T06:25:09.000Z,95212.41
2023-09-19T06:28:13.249Z,95214.38
2023-09-19T06:31:16.141Z,95213.59
2023-09-19T06:34:18.832Z,95209.00
2023-09-19T06:37:23.260Z,95220.66
2023-09-19T06:40:25.903Z,95219.50
2023-09-19T06:43:29.538Z,95216.38
2023-09-19T06:46:35.949Z,95218.72
2023-09-19T06:49:39.357Z,95225.34
2023-09-19T06:52:43.723Z,95223.38
2023-09-19T06:55:46.448Z,95221.50
2023-09-19T06:58:49.023Z,95231.59
2023-09-19T07:01:52.009Z,95240.63
2023-09-19T07:04:54.703Z,95247.25
2023-09-19T07:08:00.198Z,95249.19
2023-09-19T07:11:03.320Z,95253.91
2023-09-19T07:14:06.746Z,95271.09
2023-09-19T07:17:09.995Z,95260.16
2023-09-19T07:20:17.180Z,95280.84
2023-09-19T07:23:23.854Z,95269.09
2023-09-19T07:26:26.504Z,95281.19
2023-09-19T07:29:29.025Z,95271.81
2023-09-19T07:32:31.679Z,95284.72
2023-09-19T07:35:35.338Z,95286.31
2023-09-19T07:38:39.303Z,95293.38
2023-09-19T07:41:41.844Z,95292.19
2023-09-19T07:44:44.553Z,95303.53
2023-09-19T07:47:47.873Z,95303.53
2023-09-19T07:50:50.644Z,95306.19
2023-09-19T07:53:55.627Z,95301.50
2023-09-19T07:56:59.170Z,95299.88
2023-09-19T08:00:01.858Z,95299.03
2023-09-19T08:03:13.117Z,95306.84
2023-09-19T08:06:20.156Z,95305.75
2023-09-19T08:09:26.125Z,95307.72
2023-09-19T08:12:28.907Z,95313.19
2023-09-19T08:15:31.744Z,95314.28
2023-09-19T08:18:34.669Z,95312.63
2023-09-19T08:21:37.590Z,95317.28
2023-09-19T08:24:44.127Z,95336.31
2023-09-19T08:27:49.363Z,95328.69
2023-09-19T08:30:52.441Z,95336.56
2023-09-19T08:33:57.262Z,95324.47
2023-09-19T08:37:12.797Z,95323.53
2023-09-19T08:40:21.052Z,95328.56
2023-09-19T08:43:25.215Z,95333.28
2023-09-19T08:46:32.617Z,95329.47
2023-09-19T08:49:47.151Z,95337.66
2023-09-19T08:52:55.909Z,95338.13
2023-09-19T08:56:04.445Z,95336.59
2023-09-19T08:59:09.090Z,95350.72
2023-09-19T09:02:14.298Z,95331.56
2023-09-19T09:05:23.762Z,95349.16
2023-09-19T09:08:27.629Z,95351.06
2023-09-19T09:11:35.632Z,95346.81
2023-09-19T09:14:39.229Z,95341.41
2023-09-19T09:17:42.066Z,95359.72
2023-09-19T09:20:45.890Z,95351.94
2023-09-19T09:23:48.440Z,95363.63
2023-09-19T09:26:54.272Z,95365.59
2023-09-19T09:29:56.934Z,95374.94
2023-09-19T09:33:13.139Z,95374.88
2023-09-19T09:36:16.620Z,95358.78
2023-09-19T09:39:33.285Z,95373.56
2023-09-19T09:42:40.375Z,95376.28
2023-09-19T09:45:49.485Z,95376.28
2023-09-19T09:49:15.560Z,95368.94
2023-09-19T09:52:19.024Z,95365.91
2023-09-19T09:55:21.926Z,95384.22
2023-09-19T09:58:30.289Z,95383.72
2023-09-19T10:01:49.265Z,95383.78
2023-09-19T10:05:15.736Z,95390.00
2023-09-19T10:08:20.333Z,95379.19
2023-09-19T10:11:31.370Z,95382.50
2023-09-19T10:14:39.510Z,95378.44
2023-09-19T10:17:45.641Z,95370.13
2023-09-19T10:20:50.267Z,95364.56
2023-09-19T10:23:57.793Z,95382.59
2023-09-19T10:27:01.827Z,95390.38
2023-09-19T10:30:08.555Z,95385.38
2023-09-19T10:33:11.453Z,95383.09
2023-09-19T10:36:15.265Z,95395.94
2023-09-19T10:39:20.786Z,95388.16
2023-09-19T10:42:30.054Z,95384.75
2023-09-19T10:45:35.695Z,95385.56
2023-09-19T10:48:41.182Z,95384.75
2023-09-19T10:51:46.590Z,95375.06
2023-09-19T10:54:52.244Z,95389.84
2023-09-19T10:57:55.054Z,95389.50
2023-09-19T11:01:06.655Z,95384.03
2023-09-19T11:04:24.447Z,95384.03
2023-09-19T11:07:27.254Z,95385.16
2023-09-19T11:10:48.398Z,95376.16
2023-09-19T11:14:16.496Z,95378.09
2023-09-19T11:17:47.756Z,95380.44
2023-09-19T11:20:52.843Z,95382.41
2023-09-19T11:24:28.672Z,95391.41
2023-09-19T11:27:34.206Z,95381.66
2023-09-19T11:30:38.733Z,95385.59
2023-09-19T11:33:47.735Z,95380.19
2023-09-19T11:36:50.741Z,95387.19
2023-09-19T11:40:16.689Z,95392.25
2023-09-19T11:43:36.878Z,95387.56
2023-09-19T11:46:54.391Z,95374.25
2023-09-19T11:50:00.465Z,95373.06
2023-09-19T11:53:03.613Z,95392.59
2023-09-19T11:56:11.599Z,95382.84
2023-09-19T12:02:40.864Z,95392.22
2023-09-19T12:05:44.870Z,95380.53
2023-09-19T12:11:52.730Z,95392.59
2023-09-19T12:14:56.372Z,95377.78
2023-09-19T12:17:58.958Z,95381.66
2023-09-19T12:21:05.932Z,95386.75
2023-09-19T12:24:14.435Z,95379.34
2023-09-19T12:27:17.347Z,95382.84
2023-09-19T12:30:27.677Z,95377.47
2023-09-19T12:33:31.288Z,95379.03
2023-09-19T12:36:35.792Z,95382.94
2023-09-19T12:39:38.316Z,95377.06
2023-09-19T12:42:42.337Z,95377.88
2023-09-19T12:45:46.321Z,95379.78
2023-09-19T12:48:49.321Z,95370.38
2023-09-19T12:51:57.481Z,95359.88
2023-09-19T12:55:03.618Z,95361.81
2023-09-19T12:58:16.305Z,95369.16
2023-09-19T13:01:19.328Z,95371.53
2023-09-19T13:04:27.408Z,95374.66
2023-09-19T13:07:48.164Z,95373.44
2023-09-19T13:11:10.877Z,95369.16
2023-09-19T13:14:19.929Z,95352.44
2023-09-19T13:17:24.234Z,95374.66
2023-09-19T13:20:29.903Z,95371.91
2023-09-19T13:23:33.869Z,95370.34
2023-09-19T13:26:36.554Z,95375.44
2023-09-19T13:29:39.101Z,95370.78
2023-09-19T13:32:42.006Z,95364.94
2023-09-19T13:35:44.596Z,95359.53
2023-09-19T13:38:50.613Z,95372.75
2023-09-19T13:41:53.481Z,95366.88
2023-09-19T13:44:56.453Z,95358.66
2023-09-19T13:48:00.371Z,95355.56
2023-09-19T13:51:05.659Z,95359.09
2023-09-19T13:54:09.760Z,95360.63
2023-09-19T13:57:12.328Z,95352.44
2023-09-19T14:00:17.608Z,95361.44
2023-09-19T14:03:21.870Z,95361.44
2023-09-19T14:06:24.571Z,95368.06
2023-09-19T14:09:28.805Z,95369.63
2023-09-19T14:12:31.660Z,95361.50
2023-09-19T14:15:35.989Z,95357.16
2023-09-19T14:18:38.915Z,95370.03
2023-09-19T14:21:41.697Z,95365.75
2023-09-19T14:24:45.601Z,95363.00
2023-09-19T14:27:49.069Z,95362.22
2023-09-19T14:30:52.162Z,95368.88
2023-09-19T14:33:58.692Z,95368.88
2023-09-19T14:37:01.348Z,95368.88
2023-09-19T14:40:09.388Z,95363.47
2023-09-19T14:43:12.039Z,95368.53
2023-09-19T14:46:15.587Z,95355.63
2023-09-19T14:49:18.749Z,95354.06
2023-09-19T14:52:21.392Z,95352.13
2023-09-19T14:55:25.364Z,95355.28
2023-09-19T14:58:30.987Z,95365.38
2023-09-19T15:01:34.063Z,95367.34
2023-09-19T15:04:36.878Z,95374.78
2023-09-19T15:07:40.090Z,95352.56
2023-09-19T15:10:53.879Z,95363.44
2023-09-19T15:13:57.489Z,95365.78
2023-09-19T15:17:00.261Z,95362.25
2023-09-19T15:20:07.420Z,95369.66
2023-09-19T15:23:10.692Z,95373.56
2023-09-19T15:26:18.440Z,95364.59
2023-09-19T15:29:21.376Z,95366.91
2023-09-19T15:32:24.128Z,95359.88
2023-09-19T15:35:26.929Z,95355.19
2023-09-19T15:38:30.022Z,95357.56
2023-09-19T15:41:35.170Z,95363.03
2023-09-19T15:44:38.045Z,95355.22
2023-09-19T15:47:40.777Z,95350.53
2023-09-19T15:50:45.764Z,95354.41
2023-09-19T15:53:50.833Z,95363.81
2023-09-19T15:56:56.134Z,95356.38
2023-09-19T15:59:59.551Z,95361.06
2023-09-19T16:03:02.322Z,95353.28
2023-09-19T16:06:10.182Z,95358.34
2023-09-19T16:09:12.799Z,95352.47
2023-09-19T16:12:16.820Z,95354.44
2023-09-19T16:15:19.540Z,95359.53
2023-09-19T16:18:22.980Z,95357.59
2023-09-19T16:21:27.710Z,95347.06
2023-09-19T16:24:30.445Z,95358.78
2023-09-19T16:27:34.412Z,95367.00
2023-09-19T16:30:36.975Z,95361.50
2023-09-19T16:33:42.181Z,95369.72
2023-09-19T16:36:45.203Z,95359.22
2023-09-19T16:39:49.429Z,95361.13
2023-09-19T16:42:56.266Z,95362.31
2023-09-19T16:46:00.929Z,95357.69
2023-09-19T16:49:04.979Z,95374.81
2023-09-19T16:52:07.778Z,95377.97
2023-09-19T16:55:10.661Z,95378.75
2023-09-19T16:58:14.791Z,95378.78
2023-09-19T17:01:19.486Z,95376.03
2023-09-19T17:04:22.277Z,95372.91
2023-09-19T17:07:26.941Z,95381.13
2023-09-19T17:10:33.728Z,95367.47
2023-09-19T17:13:38.132Z,95376.84
2023-09-19T17:16:40.780Z,95381.50
2023-09-19T17:19:44.555Z,95389.72
2023-09-19T17:22:47.531Z,95379.59
2023-09-19T17:25:50.182Z,95394.00
2023-09-19T17:28:55.100Z,95393.63
2023-09-19T17:31:57.922Z,95390.16
2023-09-19T17:35:00.766Z,95382.72
2023-09-19T17:38:04.398Z,95388.56
2023-09-19T17:41:08.969Z,95379.22
2023-09-19T17:44:13.379Z,95378.06
2023-09-19T17:47:18.733Z,95386.22
2023-09-19T17:50:21.918Z,95393.66
2023-09-19T17:53:24.521Z,95397.56
2023-09-19T17:56:27.149Z,95414.00
2023-09-19T17:59:31.281Z,95402.28
2023-09-19T18:02:34.352Z,95419.50
2023-09-19T18:05:37.009Z,95419.88
2023-09-19T18:08:40.918Z,95424.97
2023-09-19T18:11:43.901Z,95415.22
2023-09-19T18:14:47.893Z,95433.19
2023-09-19T18:17:53.609Z,95435.91
2023-09-19T18:20:56.234Z,95437.09
2023-09-19T18:24:01.902Z,95437.88
2023-09-19T18:27:05.211Z,95430.09
2023-09-19T18:30:10.586Z,95435.16
2023-09-19T18:33:13.244Z,95456.25
2023-09-19T18:36:16.138Z,95450.78
2023-09-19T18:39:21.183Z,95453.09
2023-09-19T18:42:23.991Z,95438.69
2023-09-19T18:45:40.299Z,95444.94
2023-09-19T18:48:47.355Z,95456.25
2023-09-19T18:51:50.290Z,95448.47
2023-09-19T18:54:53.142Z,95459.75
2023-09-19T18:57:55.836Z,95455.47
2023-09-19T19:01:04.207Z,95458.22
2023-09-19T19:04:07.200Z,95462.91
2023-09-19T19:07:12.687Z,95459.41
2023-09-19T19:10:15.287Z,95464.09
2023-09-19T19:13:18.739Z,95464.09
2023-09-19T19:16:22.951Z,95455.50
2023-09-19T19:19:25.601Z,95455.91
2023-09-19T19:22:29.207Z,95470.78
2023-09-19T19:25:31.758Z,95474.66
2023-09-19T19:28:36.958Z,95476.25
2023-09-19T19:31:41.049Z,95466.47
2023-09-19T19:34:43.646Z,95466.47
2023-09-19T19:37:46.361Z,95458.28
2023-09-19T19:40:49.946Z,95472.31
2023-09-19T19:43:52.647Z,95466.88
2023-09-19T19:46:56.715Z,95471.94
2023-09-19T19:50:00.225Z,95476.63
2023-09-19T19:53:03.035Z,95475.44
2023-09-19T19:56:06.957Z,95473.88
2023-09-19T19:59:10.680Z,95472.34
2023-09-19T20:02:14.685Z,95473.53
2023-09-19T20:05:17.937Z,95466.50
2023-09-19T20:08:21.180Z,95475.47
2023-09-19T20:11:27.870Z,95475.47
2023-09-19T20:14:30.767Z,95476.63
2023-09-19T20:17:34.735Z,95475.09
2023-09-19T20:20:37.881Z,95478.59
2023-09-19T20:23:42.576Z,95473.19
2023-09-19T20:26:45.099Z,95486.03
2023-09-19T20:29:47.612Z,95472.75
2023-09-19T20:32:52.115Z,95474.34
2023-09-19T20:35:59.545Z,95488.41
2023-09-19T20:39:02.305Z,95471.19
2023-09-19T20:42:05.372Z,95457.53
2023-09-19T20:45:13.735Z,95452.09
2023-09-19T20:48:18.141Z,95459.84
2023-09-19T20:51:26.742Z,95452.47
2023-09-19T20:54:29.587Z,95462.59
2023-09-19T20:57:32.263Z,95454.81
2023-09-19T21:00:35.551Z,95463.38
2023-09-19T21:03:40.339Z,95472.78
2023-09-19T21:06:43.086Z,95473.56
2023-09-19T21:09:45.654Z,95480.22
2023-09-19T21:12:48.963Z,95481.41
2023-09-19T21:15:51.522Z,95482.56
2023-09-19T21:18:55.616Z,95478.66
2023-09-19T21:21:59.088Z,95485.31
2023-09-19T21:25:01.715Z,95466.59
2023-09-19T21:28:05.237Z,95477.47
2023-09-19T21:31:09.860Z,95475.94
2023-09-19T21:34:14.401Z,95465.41
2023-09-19T21:37:18.251Z,95478.66
2023-09-19T21:40:20.769Z,95472.03
2023-09-19T21:43:23.309Z,95476.72
2023-09-19T21:46:25.997Z,95477.50
2023-09-19T21:49:30.708Z,95475.94
2023-09-19T21:52:35.278Z,95478.69
2023-09-19T21:55:37.840Z,95469.72
2023-09-19T21:58:40.660Z,95475.56
2023-09-19T22:01:44.406Z,95477.13
2023-09-19T22:04:50.793Z,95471.25
2023-09-19T22:07:53.415Z,95468.94
2023-09-19T22:10:55.968Z,95464.66
2023-09-19T22:13:58.563Z,95459.94
2023-09-19T22:17:02.320Z,95465.41
2023-09-19T22:20:19.482Z,95472.06
2023-09-19T22:23:26.796Z,95468.56
2023-09-19T22:26:30.015Z,95466.59
2023-09-19T22:29:34.636Z,95448.66
2023-09-19T22:32:37.854Z,95461.91
2023-09-19T22:35:42.032Z,95464.66
2023-09-19T22:38:44.760Z,95456.09
2023-09-19T22:41:47.797Z,95466.59
2023-09-19T22:44:50.776Z,95449.06
2023-09-19T22:47:55.398Z,95469.75
2023-09-19T22:51:05.126Z,95456.09
2023-09-19T22:54:12.137Z,95455.31
2023-09-19T22:57:15.125Z,95465.84
2023-09-19T23:00:21.180Z,95460.38
2023-09-19T23:03:26.802Z,95453.38
2023-09-19T23:06:31.025Z,95449.09
2023-09-19T23:09:35.934Z,95463.91
2023-09-19T23:12:39.488Z,95460.38
2023-09-19T23:15:44.724Z,95453.38
2023-09-19T23:18:49.038Z,95458.06
2023-09-19T23:21:55.569Z,95462.75
2023-09-19T23:25:13.138Z,95457.28
2023-09-19T23:28:16.680Z,95447.53
2023-09-19T23:31:20.681Z,95473.28
2023-09-19T23:34:23.194Z,95449.88
2023-09-19T23:37:27.124Z,95466.25
2023-09-19T23:40:31.706Z,95456.94
2023-09-19T23:43:36.971Z,95457.69
2023-09-19T23:46:43.274Z,95473.69
2023-09-19T23:49:48.660Z,95476.84
2023-09-19T23:52:52.640Z,95461.22
2023-09-19T23:55:55.318Z,95463.16
2023-09-19T23:58:58.025Z,95453.03
